sensor_id;sensor_type;location;lat;lon;timestamp;P1;durP1;ratioP1;P2;durP2;ratioP2
61739;SDS011;47645;45.288;12.038;2022-08-11T00:00:37;6.7;;;2.7;;
61739;SDS011;47645;45.288;12.038;2022-08-11T00:10:37;6.0;;;2.6;;
61739;SDS011;47645;45.288;12.038;2022-08-11T00:20:40;3.8;;;2.3;;
61739;SDS011;47645;45.288;12.038;2022-08-11T00:30:40;6.6;;;2.5;;
61739;SDS011;47645;45.288;12.038;2022-08-11T00:40:41;3.8;;;2.5;;
61739;SDS011;47645;45.288;12.038;2022-08-11T00:50:44;4.7;;;2.3;;
61739;SDS011;47645;45.288;12.038;2022-08-11T01:00:48;8.3;;;2.7;;
61739;SDS011;47645;45.288;12.038;2022-08-11T01:10:53;3.9;;;2.3;;
61739;SDS011;47645;45.288;12.038;2022-08-11T01:20:57;6.6;;;2.4;;
61739;SDS011;47645;45.288;12.038;2022-08-11T01:31:01;4.3;;;1.9;;
61739;SDS011;47645;45.288;12.038;2022-08-11T01:40:51;3.4;;;2.0;;
61739;SDS011;47645;45.288;12.038;2022-08-11T01:50:55;3.2;;;2.0;;
61739;SDS011;47645;45.288;12.038;2022-08-11T02:00:53;4.6;;;2.0;;
61739;SDS011;47645;45.288;12.038;2022-08-11T02:11:58;5.5;;;2.3;;
61739;SDS011;47645;45.288;12.038;2022-08-11T02:33:23;6.2;;;1.9;;
61739;SDS011;47645;45.288;12.038;2022-08-11T02:40:59;4.5;;;1.9;;
61739;SDS011;47645;45.288;12.038;2022-08-11T02:51:01;5.2;;;2.1;;
61739;SDS011;47645;45.288;12.038;2022-08-11T03:01:02;4.9;;;2.0;;
61739;SDS011;47645;45.288;12.038;2022-08-11T03:21:02;5.1;;;1.9;;
61739;SDS011;47645;45.288;12.038;2022-08-11T03:31:06;4.9;;;1.8;;
61739;SDS011;47645;45.288;12.038;2022-08-11T03:41:55;4.2;;;1.9;;
61739;SDS011;47645;45.288;12.038;2022-08-11T03:51:05;4.8;;;1.9;;
61739;SDS011;47645;45.288;12.038;2022-08-11T04:01:13;3.2;;;1.8;;
61739;SDS011;47645;45.288;12.038;2022-08-11T04:11:14;4.0;;;1.9;;
61739;SDS011;47645;45.288;12.038;2022-08-11T04:21:12;2.5;;;1.5;;
61739;SDS011;47645;45.288;12.038;2022-08-11T04:31:15;5.1;;;1.6;;
61739;SDS011;47645;45.288;12.038;2022-08-11T04:41:52;4.2;;;2.0;;
61739;SDS011;47645;45.288;12.038;2022-08-11T05:01:50;5.6;;;2.1;;
61739;SDS011;47645;45.288;12.038;2022-08-11T05:11:21;4.7;;;1.5;;
61739;SDS011;47645;45.288;12.038;2022-08-11T06:01:20;3.9;;;1.6;;
61739;SDS011;47645;45.288;12.038;2022-08-11T06:11:19;5.6;;;1.5;;
61739;SDS011;47645;45.288;12.038;2022-08-11T06:21:20;4.0;;;1.6;;
61739;SDS011;47645;45.288;12.038;2022-08-11T06:31:23;5.4;;;1.7;;
61739;SDS011;47645;45.288;12.038;2022-08-11T06:41:32;3.0;;;1.6;;
61739;SDS011;47645;45.288;12.038;2022-08-11T06:51:24;4.8;;;1.7;;
61739;SDS011;47645;45.288;12.038;2022-08-11T07:01:31;4.3;;;1.7;;
61739;SDS011;47645;45.288;12.038;2022-08-11T07:31:30;4.0;;;1.5;;
61739;SDS011;47645;45.288;12.038;2022-08-11T07:41:32;2.7;;;1.3;;
61739;SDS011;47645;45.288;12.038;2022-08-11T07:52:37;3.4;;;1.6;;
61739;SDS011;47645;45.288;12.038;2022-08-11T08:21:36;2.6;;;1.6;;
61739;SDS011;47645;45.288;12.038;2022-08-11T08:31:37;3.5;;;1.4;;
61739;SDS011;47645;45.288;12.038;2022-08-11T08:41:38;3.6;;;1.4;;
61739;SDS011;47645;45.288;12.038;2022-08-11T08:51:40;3.2;;;1.1;;
61739;SDS011;47645;45.288;12.038;2022-08-11T09:01:41;3.5;;;1.4;;
61739;SDS011;47645;45.288;12.038;2022-08-11T09:11:49;2.7;;;1.2;;
61739;SDS011;47645;45.288;12.038;2022-08-11T09:21:44;4.7;;;1.4;;
61739;SDS011;47645;45.288;12.038;2022-08-11T09:31:45;4.5;;;1.4;;
61739;SDS011;47645;45.288;12.038;2022-08-11T09:41:46;3.5;;;1.3;;
61739;SDS011;47645;45.288;12.038;2022-08-11T09:51:48;8.0;;;1.7;;
61739;SDS011;47645;45.288;12.038;2022-08-11T10:01:51;7.1;;;1.6;;
61739;SDS011;47645;45.288;12.038;2022-08-11T10:11:52;6.6;;;1.4;;
61739;SDS011;47645;45.288;12.038;2022-08-11T10:26:49;6.0;;;1.2;;
61739;SDS011;47645;45.288;12.038;2022-08-11T11:02:02;5.3;;;1.4;;
61739;SDS011;47645;45.288;12.038;2022-08-11T11:22:37;3.2;;;1.0;;
61739;SDS011;47645;45.288;12.038;2022-08-11T11:32:08;2.6;;;1.2;;
61739;SDS011;47645;45.288;12.038;2022-08-11T11:42:08;2.8;;;1.0;;
61739;SDS011;47645;45.288;12.038;2022-08-11T11:52:12;6.0;;;1.4;;
61739;SDS011;47645;45.288;12.038;2022-08-11T12:02:11;3.0;;;1.0;;
61739;SDS011;47645;45.288;12.038;2022-08-11T12:32:15;2.8;;;0.9;;
61739;SDS011;47645;45.288;12.038;2022-08-11T12:52:21;1.1;;;0.6;;
61739;SDS011;47645;45.288;12.038;2022-08-11T13:12:55;1.3;;;0.6;;
61739;SDS011;47645;45.288;12.038;2022-08-11T13:22:25;3.1;;;0.7;;
61739;SDS011;47645;45.288;12.038;2022-08-11T13:32:28;2.2;;;0.7;;
61739;SDS011;47645;45.288;12.038;2022-08-11T13:42:29;2.6;;;1.3;;
61739;SDS011;47645;45.288;12.038;2022-08-11T13:52:31;2.7;;;0.9;;
61739;SDS011;47645;45.288;12.038;2022-08-11T14:02:33;1.8;;;0.8;;
61739;SDS011;47645;45.288;12.038;2022-08-11T14:13:40;2.5;;;0.9;;
61739;SDS011;47645;45.288;12.038;2022-08-11T14:22:37;2.7;;;0.9;;
61739;SDS011;47645;45.288;12.038;2022-08-11T14:32:39;5.2;;;1.0;;
61739;SDS011;47645;45.288;12.038;2022-08-11T14:52:50;2.3;;;0.8;;
61739;SDS011;47645;45.288;12.038;2022-08-11T15:03:17;3.2;;;1.0;;
61739;SDS011;47645;45.288;12.038;2022-08-11T15:12:47;1.9;;;0.8;;
61739;SDS011;47645;45.288;12.038;2022-08-11T15:52:55;2.5;;;0.7;;
61739;SDS011;47645;45.288;12.038;2022-08-11T16:16:13;1.3;;;0.7;;
61739;SDS011;47645;45.288;12.038;2022-08-11T16:23:01;1.9;;;0.7;;
61739;SDS011;47645;45.288;12.038;2022-08-11T16:33:04;2.1;;;0.7;;
61739;SDS011;47645;45.288;12.038;2022-08-11T16:53:05;2.7;;;0.8;;
61739;SDS011;47645;45.288;12.038;2022-08-11T17:13:09;4.0;;;0.9;;
61739;SDS011;47645;45.288;12.038;2022-08-11T17:24:15;2.0;;;0.8;;
61739;SDS011;47645;45.288;12.038;2022-08-11T18:03:33;3.6;;;1.0;;
